createdAt,value
2018-03-02T00:00:08.563Z,-9.10
2018-03-02T00:02:36.179Z,-9.10
2018-03-02T00:05:03.830Z,-9.10
2018-03-02T00:07:31.439Z,-9.10
2018-03-02T00:09:59.094Z,-9.10
2018-03-02T00:12:26.711Z,-9.10
2018-03-02T00:14:55.085Z,-9.20
2018-03-02T00:17:22.715Z,-9.20
2018-03-02T00:19:50.411Z,-9.20
2018-03-02T00:22:18.041Z,-9.20
2018-03-02T00:24:45.641Z,-9.20
2018-03-02T00:27:13.339Z,-9.20
2018-03-02T00:29:40.938Z,-9.20
2018-03-02T00:32:09.344Z,-9.20
2018-03-02T00:34:36.964Z,-9.30
2018-03-02T00:37:04.578Z,-9.30
2018-03-02T00:39:32.965Z,-9.20
2018-03-02T00:42:00.585Z,-9.30
2018-03-02T00:44:28.227Z,-9.30
2018-03-02T00:46:56.608Z,-9.30
2018-03-02T00:49:24.998Z,-9.40
2018-03-02T00:51:53.366Z,-9.30
2018-03-02T00:54:20.990Z,-9.40
2018-03-02T00:56:48.607Z,-9.30
2018-03-02T00:59:16.251Z,-9.40
2018-03-02T01:01:43.949Z,-9.40
2018-03-02T01:04:11.575Z,-9.40
2018-03-02T01:06:39.297Z,-9.50
2018-03-02T01:09:06.892Z,-9.50
2018-03-02T01:11:34.514Z,-9.60
2018-03-02T01:14:02.111Z,-9.50
2018-03-02T01:16:29.759Z,-9.50
2018-03-02T01:18:57.378Z,-9.50
2018-03-02T01:21:25.028Z,-9.50
2018-03-02T01:23:52.630Z,-9.60
2018-03-02T01:26:20.291Z,-9.60
2018-03-02T01:28:47.903Z,-9.60
2018-03-02T01:31:16.335Z,-9.70
2018-03-02T01:33:43.956Z,-9.70
2018-03-02T01:36:11.559Z,-9.60
2018-03-02T01:38:39.954Z,-9.60
2018-03-02T01:41:07.572Z,-9.70
2018-03-02T01:43:35.212Z,-9.70
2018-03-02T01:46:02.810Z,-9.70
2018-03-02T01:48:30.442Z,-9.70
2018-03-02T01:50:58.157Z,-9.70
2018-03-02T01:53:25.775Z,-9.80
2018-03-02T01:55:53.386Z,-9.80
2018-03-02T01:58:21.030Z,-9.80
2018-03-02T02:00:49.445Z,-9.80
2018-03-02T02:03:17.044Z,-9.80
2018-03-02T02:05:44.658Z,-9.80
2018-03-02T02:08:12.251Z,-9.90
2018-03-02T02:10:40.641Z,-9.90
2018-03-02T02:13:09.007Z,-9.90
2018-03-02T02:15:36.629Z,-10.00
2018-03-02T02:18:04.230Z,-9.90
2018-03-02T02:20:32.272Z,-9.90
2018-03-02T02:22:59.883Z,-9.90
2018-03-02T02:25:27.508Z,-9.90
2018-03-02T02:27:55.887Z,-10.00
2018-03-02T02:30:23.486Z,-10.10
2018-03-02T02:32:51.112Z,-10.00
2018-03-02T02:35:18.721Z,-10.00
2018-03-02T02:37:47.115Z,-10.10
2018-03-02T02:40:14.735Z,-10.20
2018-03-02T02:42:42.363Z,-10.10
2018-03-02T02:45:10.735Z,-10.10
2018-03-02T02:47:38.361Z,-10.20
2018-03-02T02:50:05.965Z,-10.10
2018-03-02T02:52:33.610Z,-10.10
2018-03-02T02:55:01.222Z,-10.20
2018-03-02T02:57:28.850Z,-10.20
2018-03-02T02:59:56.471Z,-10.20
2018-03-02T03:02:24.085Z,-10.20
2018-03-02T03:04:51.718Z,-10.20
2018-03-02T03:07:19.354Z,-10.20
2018-03-02T03:09:46.988Z,-10.20
2018-03-02T03:12:15.359Z,-10.20
2018-03-02T03:14:43.316Z,-10.30
2018-03-02T03:17:10.917Z,-10.30
2018-03-02T03:19:38.537Z,-10.30
2018-03-02T03:22:06.151Z,-10.30
2018-03-02T03:24:34.258Z,-10.30
2018-03-02T03:27:02.629Z,-10.40
2018-03-02T03:29:30.214Z,-10.40
2018-03-02T03:31:57.833Z,-10.40
2018-03-02T03:34:25.435Z,-10.30
2018-03-02T03:36:53.069Z,-10.30
2018-03-02T03:39:20.681Z,-10.30
2018-03-02T03:41:48.376Z,-10.30
2018-03-02T03:44:15.997Z,-10.30
2018-03-02T03:46:43.657Z,-10.30
2018-03-02T03:49:12.037Z,-10.40
2018-03-02T03:51:40.413Z,-10.40
2018-03-02T03:54:08.059Z,-10.40
2018-03-02T03:56:35.673Z,-10.30
2018-03-02T03:59:04.051Z,-10.30
2018-03-02T04:01:32.008Z,-10.40
2018-03-02T04:03:59.613Z,-10.30
2018-03-02T04:06:27.250Z,-10.30
2018-03-02T04:08:54.859Z,-10.40
2018-03-02T04:11:22.468Z,-10.40
2018-03-02T04:13:50.089Z,-10.30
2018-03-02T04:16:17.705Z,-10.40
2018-03-02T04:18:46.112Z,-10.40
2018-03-02T04:21:13.736Z,-10.50
2018-03-02T04:23:41.392Z,-10.50
2018-03-02T04:26:09.019Z,-10.50
2018-03-02T04:28:37.390Z,-10.40
2018-03-02T04:31:05.027Z,-10.50
2018-03-02T04:33:32.626Z,-10.50
2018-03-02T04:36:00.221Z,-10.50
2018-03-02T04:38:27.859Z,-10.50
2018-03-02T04:40:55.475Z,-10.40
2018-03-02T04:43:23.879Z,-10.50
2018-03-02T04:45:51.579Z,-10.50
2018-03-02T04:48:19.183Z,-10.50
2018-03-02T04:50:46.806Z,-10.50
2018-03-02T04:53:14.408Z,-10.50
2018-03-02T04:55:42.052Z,-10.50
2018-03-02T04:58:09.653Z,-10.50
2018-03-02T05:00:37.262Z,-10.50
2018-03-02T05:03:04.913Z,-10.60
2018-03-02T05:05:32.515Z,-10.50
2018-03-02T05:08:00.606Z,-10.50
2018-03-02T05:10:28.978Z,-10.60
2018-03-02T05:12:56.631Z,-10.60
2018-03-02T05:15:24.259Z,-10.60
2018-03-02T05:17:51.912Z,-10.60
2018-03-02T05:20:19.553Z,-10.60
2018-03-02T05:22:47.166Z,-10.60
2018-03-02T05:25:15.798Z,-10.50
2018-03-02T05:27:43.424Z,-10.60
2018-03-02T05:30:11.174Z,-10.50
2018-03-02T05:32:38.791Z,-10.50
2018-03-02T05:35:07.184Z,-10.50
2018-03-02T05:37:35.828Z,-10.50
2018-03-02T05:40:03.476Z,-10.60
2018-03-02T05:42:31.077Z,-10.50
2018-03-02T05:44:58.726Z,-10.50
2018-03-02T05:47:26.534Z,-10.60
2018-03-02T05:49:54.138Z,-10.60
2018-03-02T05:52:21.765Z,-10.70
2018-03-02T05:54:49.667Z,-10.80
2018-03-02T05:57:17.396Z,-10.80
2018-03-02T05:59:45.814Z,-10.80
2018-03-02T06:02:13.483Z,-10.90
2018-03-02T06:04:41.106Z,-10.70
2018-03-02T06:07:08.706Z,-10.80
2018-03-02T06:09:37.108Z,-10.70
2018-03-02T06:12:04.706Z,-10.80
2018-03-02T06:14:32.765Z,-10.70
2018-03-02T06:17:00.401Z,-10.60
2018-03-02T06:19:28.054Z,-10.60
2018-03-02T06:21:55.794Z,-10.50
2018-03-02T06:24:24.173Z,-10.50
2018-03-02T06:26:52.581Z,-10.50
2018-03-02T06:29:20.206Z,-10.60
2018-03-02T06:31:47.816Z,-10.50
2018-03-02T06:34:16.217Z,-10.50
2018-03-02T06:36:43.815Z,-10.60
2018-03-02T06:39:11.430Z,-10.50
2018-03-02T06:41:39.064Z,-10.40
2018-03-02T06:44:06.674Z,-10.40
2018-03-02T06:46:34.307Z,-10.30
2018-03-02T06:49:01.943Z,-10.30
2018-03-02T06:51:30.318Z,-10.10
2018-03-02T06:53:57.949Z,-10.20
2018-03-02T06:56:25.564Z,-10.00
2018-03-02T06:58:53.184Z,-9.90
2018-03-02T07:01:20.788Z,-9.90
2018-03-02T07:03:48.383Z,-9.90
2018-03-02T07:06:15.990Z,-9.90
2018-03-02T07:08:43.595Z,-9.70
2018-03-02T07:11:11.258Z,-9.50
2018-03-02T07:13:38.857Z,-9.30
2018-03-02T07:16:06.730Z,-9.30
2018-03-02T07:18:34.350Z,-9.10
2018-03-02T07:21:02.968Z,-8.90
2018-03-02T07:23:30.592Z,-8.90
2018-03-02T07:25:58.224Z,-8.90
2018-03-02T07:28:26.564Z,-8.90
2018-03-02T07:30:54.185Z,-8.90
2018-03-02T07:33:21.799Z,-8.60
2018-03-02T07:35:49.452Z,-8.40
2018-03-02T07:38:17.057Z,-8.30
2018-03-02T07:40:44.662Z,-8.20
2018-03-02T07:43:13.058Z,-8.10
2018-03-02T07:45:40.666Z,-8.20
2018-03-02T07:48:08.308Z,-8.00
2018-03-02T07:50:35.906Z,-7.90
2018-03-02T07:53:03.502Z,-7.80
2018-03-02T07:55:31.121Z,-7.80
2018-03-02T07:57:58.831Z,-7.70
2018-03-02T08:00:26.470Z,-7.70
2018-03-02T08:02:54.838Z,-7.30
2018-03-02T08:05:22.433Z,-7.40
2018-03-02T08:07:50.815Z,-6.70
2018-03-02T08:10:19.264Z,-6.60
2018-03-02T08:12:46.899Z,-6.60
2018-03-02T08:15:14.501Z,-6.40
2018-03-02T08:17:42.093Z,-6.60
2018-03-02T08:20:09.710Z,-6.70
2018-03-02T08:22:38.073Z,-6.40
2018-03-02T08:25:05.722Z,-6.50
2018-03-02T08:27:33.309Z,-6.60
2018-03-02T08:30:00.908Z,-6.70
2018-03-02T08:32:29.360Z,-6.50
2018-03-02T08:34:56.954Z,-6.60
2018-03-02T08:37:24.589Z,-5.60
2018-03-02T08:39:52.283Z,-4.80
2018-03-02T08:42:19.888Z,-3.40
2018-03-02T08:44:47.510Z,-2.80
2018-03-02T08:47:15.207Z,-2.60
2018-03-02T08:49:42.870Z,-1.90
2018-03-02T08:52:10.514Z,-1.00
2018-03-02T08:54:38.122Z,-1.10
2018-03-02T08:57:05.742Z,-1.10
2018-03-02T08:59:34.110Z,-1.40
2018-03-02T09:02:01.749Z,-1.50
2018-03-02T09:04:29.354Z,-1.00
2018-03-02T09:06:56.966Z,-1.20
2018-03-02T09:09:24.576Z,-2.30
2018-03-02T09:11:52.181Z,-2.20
2018-03-02T09:14:19.818Z,-2.20
2018-03-02T09:16:47.414Z,-1.50
2018-03-02T09:19:15.012Z,-1.50
2018-03-02T09:21:42.633Z,-2.10
2018-03-02T09:24:10.234Z,-2.10
2018-03-02T09:26:37.831Z,-1.40
2018-03-02T09:29:05.476Z,-1.30
2018-03-02T09:31:33.068Z,-0.70
2018-03-02T09:34:00.701Z,-1.60
2018-03-02T09:36:28.305Z,-2.60
2018-03-02T09:38:55.915Z,-2.70
2018-03-02T09:41:24.301Z,-2.20
2018-03-02T09:43:52.719Z,-2.10
2018-03-02T09:46:20.345Z,-2.10
2018-03-02T09:48:47.945Z,-1.90
2018-03-02T09:51:16.314Z,-0.90
2018-03-02T09:53:43.932Z,-1.00
2018-03-02T09:56:11.542Z,-0.60
2018-03-02T09:58:39.212Z,-1.10
2018-03-02T10:01:06.816Z,-1.20
2018-03-02T10:03:34.418Z,-1.20
2018-03-02T10:06:02.031Z,-0.60
2018-03-02T10:08:29.618Z,-0.70
2018-03-02T10:10:57.254Z,-0.40
2018-03-02T10:13:24.938Z,-0.70
2018-03-02T10:15:52.543Z,-0.60
2018-03-02T10:18:20.162Z,0.00
2018-03-02T10:20:47.768Z,0.30
2018-03-02T10:23:15.396Z,1.40
2018-03-02T10:25:43.757Z,2.00
2018-03-02T10:28:11.351Z,2.00
2018-03-02T10:30:39.739Z,2.60
2018-03-02T10:33:07.347Z,2.50
2018-03-02T10:35:34.980Z,2.30
2018-03-02T10:38:02.581Z,1.60
2018-03-02T10:40:30.202Z,1.80
2018-03-02T10:42:57.828Z,2.10
2018-03-02T10:45:25.423Z,1.70
2018-03-02T10:47:53.042Z,2.00
2018-03-02T10:50:20.626Z,2.60
2018-03-02T10:52:48.235Z,2.20
2018-03-02T10:55:15.848Z,1.50
2018-03-02T10:57:43.449Z,1.40
2018-03-02T11:00:11.086Z,1.40
2018-03-02T11:02:44.402Z,1.00
2018-03-02T11:05:12.025Z,0.60
2018-03-02T11:07:39.622Z,0.80
2018-03-02T11:10:07.268Z,1.50
2018-03-02T11:12:34.902Z,1.00
2018-03-02T11:15:02.506Z,1.20
2018-03-02T11:17:33.612Z,0.90
2018-03-02T11:20:01.202Z,0.90
2018-03-02T11:22:28.790Z,1.60
2018-03-02T11:24:56.407Z,2.00
2018-03-02T11:27:23.992Z,0.90
2018-03-02T11:29:51.614Z,0.40
2018-03-02T11:32:19.214Z,0.50
2018-03-02T11:34:46.801Z,0.80
2018-03-02T11:37:14.417Z,1.30
2018-03-02T11:39:42.009Z,1.00
2018-03-02T11:42:09.632Z,0.30
2018-03-02T11:44:37.222Z,0.40
2018-03-02T11:47:04.856Z,0.60
2018-03-02T11:49:33.232Z,0.70
2018-03-02T11:52:01.634Z,0.40
2018-03-02T11:54:29.264Z,0.40
2018-03-02T11:56:56.881Z,0.40
2018-03-02T11:59:25.240Z,0.20
2018-03-02T12:01:52.859Z,0.20
2018-03-02T12:04:20.500Z,0.00
2018-03-02T12:06:48.117Z,0.00
2018-03-02T12:09:15.746Z,0.00
2018-03-02T12:11:43.349Z,0.70
2018-03-02T12:14:10.970Z,0.90
2018-03-02T12:16:38.558Z,1.30
2018-03-02T12:19:06.181Z,1.40
2018-03-02T12:21:33.766Z,0.40
2018-03-02T12:24:01.359Z,0.10
2018-03-02T12:26:28.995Z,0.00
2018-03-02T12:28:56.593Z,0.00
2018-03-02T12:31:24.209Z,0.50
2018-03-02T12:33:52.569Z,0.20
2018-03-02T12:36:20.181Z,0.10
2018-03-02T12:38:48.605Z,-0.60
2018-03-02T12:41:16.186Z,-0.70
2018-03-02T12:43:43.805Z,-0.80
2018-03-02T12:46:11.410Z,-0.30
2018-03-02T12:48:39.010Z,-0.60
2018-03-02T12:51:06.629Z,-0.70
2018-03-02T12:53:34.989Z,-0.10
2018-03-02T12:56:02.627Z,-0.10
2018-03-02T12:58:30.238Z,0.10
2018-03-02T13:00:57.836Z,-0.50
2018-03-02T13:03:25.458Z,-0.60
2018-03-02T13:05:53.048Z,-0.50
2018-03-02T13:08:20.703Z,-0.80
2018-03-02T13:10:48.304Z,-0.40
2018-03-02T13:13:15.966Z,-0.40
2018-03-02T13:15:43.624Z,-0.40
2018-03-02T13:21:11.481Z,0.20
2018-03-02T13:23:39.132Z,0.00
2018-03-02T13:26:06.741Z,0.30
2018-03-02T13:28:54.714Z,0.30
2018-03-02T13:31:23.088Z,-0.60
2018-03-02T13:34:02.598Z,-0.60
2018-03-02T13:36:30.189Z,-0.30
2018-03-02T13:38:57.785Z,-0.40
2018-03-02T13:41:37.284Z,-0.20
2018-03-02T13:44:04.981Z,-0.20
2018-03-02T13:46:32.581Z,-0.40
2018-03-02T13:49:12.246Z,-0.70
2018-03-02T13:51:39.846Z,-0.50
2018-03-02T13:54:07.475Z,-0.80
2018-03-02T13:56:47.042Z,-1.00
2018-03-02T13:59:14.713Z,-1.10
2018-03-02T14:01:42.312Z,-1.60
2018-03-02T14:04:22.498Z,-1.50
2018-03-02T14:06:50.113Z,-1.60
2018-03-02T14:09:17.714Z,-1.30
2018-03-02T14:11:46.118Z,-1.20
2018-03-02T14:14:14.486Z,-1.20
2018-03-02T14:16:42.137Z,-1.30
2018-03-02T14:19:10.541Z,-1.40
2018-03-02T14:21:38.136Z,-1.50
2018-03-02T14:24:06.514Z,-1.70
2018-03-02T14:26:34.895Z,-2.00
2018-03-02T14:29:02.546Z,-2.10
2018-03-02T14:31:30.139Z,-1.80
2018-03-02T14:33:57.756Z,-1.70
2018-03-02T14:36:25.399Z,-1.90
2018-03-02T14:38:53.005Z,-2.00
2018-03-02T14:41:20.709Z,-1.90
2018-03-02T14:43:48.413Z,-1.90
2018-03-02T14:46:16.015Z,-2.20
2018-03-02T14:48:44.264Z,-2.00
2018-03-02T14:51:11.956Z,-2.00
2018-03-02T14:53:39.673Z,-2.10
2018-03-02T14:56:07.510Z,-2.10
2018-03-02T14:58:35.611Z,-2.30
2018-03-02T15:01:03.827Z,-2.30
2018-03-02T15:03:33.362Z,-2.30
2018-03-02T15:06:00.985Z,-2.20
2018-03-02T15:08:28.714Z,-2.30
2018-03-02T15:10:56.339Z,-2.30
2018-03-02T15:13:24.015Z,-2.40
2018-03-02T15:15:51.738Z,-2.40
2018-03-02T15:18:19.380Z,-2.50
2018-03-02T15:20:47.754Z,-2.60
2018-03-02T15:23:15.351Z,-2.70
2018-03-02T15:25:42.983Z,-2.50
2018-03-02T15:28:10.647Z,-2.40
2018-03-02T15:30:38.253Z,-2.30
2018-03-02T15:33:05.855Z,-2.50
2018-03-02T15:35:33.508Z,-2.60
2018-03-02T15:38:01.908Z,-2.80
2018-03-02T15:40:30.373Z,-2.70
2018-03-02T15:42:58.053Z,-2.80
2018-03-02T15:45:25.659Z,-2.80
2018-03-02T15:47:53.618Z,-2.80
2018-03-02T15:50:21.274Z,-2.70
2018-03-02T15:52:48.888Z,-2.80
2018-03-02T15:55:16.581Z,-2.90
2018-03-02T15:57:44.212Z,-2.90
2018-03-02T16:00:11.833Z,-2.90
2018-03-02T16:02:39.489Z,-2.90
2018-03-02T16:05:07.093Z,-3.00
2018-03-02T16:07:34.703Z,-3.20
2018-03-02T16:10:02.341Z,-3.20
2018-03-02T16:12:30.035Z,-3.20
2018-03-02T16:14:57.662Z,-3.10
2018-03-02T16:17:25.378Z,-3.10
2018-03-02T16:19:52.968Z,-3.20
2018-03-02T16:22:20.591Z,-3.30
2018-03-02T16:24:48.198Z,-3.30
2018-03-02T16:27:15.826Z,-3.30
2018-03-02T16:29:44.813Z,-3.30
2018-03-02T16:32:13.281Z,-3.30
2018-03-02T16:34:40.897Z,-3.30
2018-03-02T16:37:09.271Z,-3.40
2018-03-02T16:39:37.707Z,-3.50
2018-03-02T16:42:05.310Z,-3.40
2018-03-02T16:44:32.910Z,-3.40
2018-03-02T16:47:00.881Z,-3.40
2018-03-02T16:49:28.473Z,-3.40
2018-03-02T16:51:56.941Z,-3.50
2018-03-02T16:54:24.577Z,-3.60
2018-03-02T16:56:52.334Z,-3.50
2018-03-02T16:59:19.980Z,-3.50
2018-03-02T17:01:47.577Z,-3.60
2018-03-02T17:04:15.202Z,-3.60
2018-03-02T17:06:42.817Z,-3.60
2018-03-02T17:09:11.198Z,-3.60
2018-03-02T17:11:39.585Z,-3.60
2018-03-02T17:14:07.751Z,-3.60
2018-03-02T17:16:36.189Z,-3.60
2018-03-02T17:19:03.802Z,-3.60
2018-03-02T17:21:31.435Z,-3.60
2018-03-02T17:23:59.364Z,-3.70
2018-03-02T17:26:27.613Z,-3.60
2018-03-02T17:28:55.253Z,-3.70
2018-03-02T17:31:23.409Z,-3.70
2018-03-02T17:33:51.070Z,-3.70
2018-03-02T17:36:19.016Z,-3.70
2018-03-02T17:38:47.467Z,-3.60
2018-03-02T17:41:15.365Z,-3.70
2018-03-02T17:43:43.059Z,-3.70
2018-03-02T17:46:13.208Z,-3.80
2018-03-02T17:48:40.905Z,-3.80
2018-03-02T17:51:08.651Z,-3.70
2018-03-02T17:53:36.500Z,-3.60
2018-03-02T17:56:05.835Z,-3.80
2018-03-02T17:58:34.369Z,-3.80
2018-03-02T18:01:02.476Z,-3.80
2018-03-02T18:03:30.169Z,-3.70
2018-03-02T18:05:57.924Z,-3.70
2018-03-02T18:08:25.551Z,-3.70
2018-03-02T18:10:54.476Z,-3.80
2018-03-02T18:13:22.152Z,-3.80
2018-03-02T18:15:49.784Z,-3.80
2018-03-02T18:18:17.568Z,-3.80
2018-03-02T18:20:45.355Z,-3.80
2018-03-02T18:23:13.757Z,-3.90
2018-03-02T18:25:42.161Z,-3.80
2018-03-02T18:28:10.554Z,-3.80
2018-03-02T18:30:38.205Z,-3.80
2018-03-02T18:33:06.648Z,-3.80
2018-03-02T18:35:34.402Z,-3.90
2018-03-02T18:38:02.184Z,-3.80
2018-03-02T18:40:29.791Z,-3.80
2018-03-02T18:42:58.241Z,-3.90
2018-03-02T18:45:25.848Z,-3.90
2018-03-02T18:47:53.463Z,-4.00
2018-03-02T18:50:21.581Z,-4.10
2018-03-02T18:52:49.204Z,-4.10
2018-03-02T18:55:16.852Z,-4.00
2018-03-02T18:57:44.456Z,-4.00
2018-03-02T19:00:12.146Z,-4.10
2018-03-02T19:02:39.781Z,-4.00
2018-03-02T19:05:08.163Z,-4.00
2018-03-02T19:07:36.291Z,-4.10
2018-03-02T19:10:04.057Z,-4.20
2018-03-02T19:12:31.693Z,-4.20
2018-03-02T19:14:59.361Z,-4.20
2018-03-02T19:17:26.966Z,-4.10
2018-03-02T19:19:54.595Z,-4.20
2018-03-02T19:22:22.985Z,-4.20
2018-03-02T19:24:50.582Z,-4.20
2018-03-02T19:27:18.201Z,-4.20
2018-03-02T19:29:45.831Z,-4.20
2018-03-02T19:32:14.821Z,-4.20
2018-03-02T19:34:43.390Z,-4.10
2018-03-02T19:37:11.277Z,-4.00
2018-03-02T19:39:40.537Z,-4.10
2018-03-02T19:42:08.628Z,-4.10
2018-03-02T19:44:36.328Z,-4.20
2018-03-02T19:47:04.849Z,-4.30
2018-03-02T19:49:33.238Z,-4.40
2018-03-02T19:52:03.739Z,-4.50
2018-03-02T19:54:32.773Z,-4.60
2018-03-02T19:57:00.671Z,-4.60
2018-03-02T19:59:28.412Z,-4.60
2018-03-02T20:01:57.934Z,-4.60
2018-03-02T20:04:25.723Z,-4.80
2018-03-02T20:06:54.053Z,-4.90
2018-03-02T20:09:21.742Z,-4.90
2018-03-02T20:11:51.772Z,-5.00
2018-03-02T20:14:19.463Z,-5.10
2018-03-02T20:16:48.203Z,-5.10
2018-03-02T20:19:19.765Z,-5.30
2018-03-02T20:21:48.031Z,-5.40
2018-03-02T20:24:15.744Z,-5.40
2018-03-02T20:26:43.633Z,-5.50
2018-03-02T20:29:13.531Z,-5.50
2018-03-02T20:31:43.518Z,-5.50
2018-03-02T20:34:12.125Z,-5.60
2018-03-02T20:36:40.676Z,-5.80
2018-03-02T20:39:09.020Z,-5.90
2018-03-02T20:41:36.682Z,-5.80
2018-03-02T20:44:07.245Z,-5.90
2018-03-02T20:46:35.721Z,-5.90
2018-03-02T20:49:03.366Z,-5.90
2018-03-02T20:51:31.001Z,-6.00
2018-03-02T20:53:58.665Z,-5.90
2018-03-02T20:56:26.304Z,-6.00
2018-03-02T20:58:53.975Z,-6.10
2018-03-02T21:01:21.630Z,-6.10
2018-03-02T21:03:50.692Z,-6.20
2018-03-02T21:06:18.323Z,-6.20
2018-03-02T21:08:46.016Z,-6.30
2018-03-02T21:11:13.683Z,-6.30
2018-03-02T21:13:41.293Z,-6.30
2018-03-02T21:16:10.454Z,-6.30
2018-03-02T21:18:38.154Z,-6.40
2018-03-02T21:21:05.754Z,-6.40
2018-03-02T21:23:33.379Z,-6.40
2018-03-02T21:26:01.149Z,-6.30
2018-03-02T21:28:28.858Z,-6.40
2018-03-02T21:30:56.746Z,-6.40
2018-03-02T21:33:24.406Z,-6.40
2018-03-02T21:35:52.069Z,-6.40
2018-03-02T21:38:19.682Z,-6.30
2018-03-02T21:40:47.521Z,-6.40
2018-03-02T21:43:15.215Z,-6.40
2018-03-02T21:45:42.941Z,-6.40
2018-03-02T21:48:12.139Z,-6.40
2018-03-02T21:50:40.092Z,-6.40
2018-03-02T21:53:07.707Z,-6.40
2018-03-02T21:55:35.347Z,-6.40
2018-03-02T21:58:03.178Z,-6.40
2018-03-02T22:00:30.833Z,-6.40
2018-03-02T22:02:59.361Z,-6.40
2018-03-02T22:05:27.000Z,-6.40
2018-03-02T22:07:54.623Z,-6.40
2018-03-02T22:10:22.540Z,-6.50
2018-03-02T22:12:50.582Z,-6.40
2018-03-02T22:15:18.297Z,-6.30
2018-03-02T22:17:46.728Z,-6.50
2018-03-02T22:20:14.457Z,-6.60
2018-03-02T22:22:42.958Z,-6.40
2018-03-02T22:25:10.628Z,-6.50
2018-03-02T22:27:38.426Z,-6.40
2018-03-02T22:30:06.871Z,-6.40
2018-03-02T22:32:34.742Z,-6.40
2018-03-02T22:35:02.803Z,-6.40
2018-03-02T22:37:30.510Z,-6.40
2018-03-02T22:39:58.334Z,-6.40
2018-03-02T22:42:26.887Z,-6.60
2018-03-02T22:44:54.540Z,-6.70
2018-03-02T22:47:22.251Z,-6.60
2018-03-02T22:49:50.117Z,-6.70
2018-03-02T22:52:17.874Z,-6.80
2018-03-02T22:54:45.839Z,-6.80
2018-03-02T22:57:13.599Z,-6.80
2018-03-02T22:59:41.973Z,-6.90
2018-03-02T23:02:09.906Z,-7.00
2018-03-02T23:04:37.538Z,-6.80
2018-03-02T23:07:06.815Z,-7.00
2018-03-02T23:09:34.586Z,-7.10
2018-03-02T23:12:02.347Z,-7.00
2018-03-02T23:14:30.090Z,-7.00
2018-03-02T23:16:57.737Z,-7.10
2018-03-02T23:19:25.952Z,-7.10
2018-03-02T23:21:54.534Z,-7.10
2018-03-02T23:24:22.219Z,-7.20
2018-03-02T23:26:50.618Z,-7.20
2018-03-02T23:31:51.092Z,-7.30
2018-03-02T23:34:18.791Z,-7.20
2018-03-02T23:36:46.463Z,-7.20
2018-03-02T23:39:14.166Z,-7.20
2018-03-02T23:41:41.782Z,-7.30
2018-03-02T23:44:10.207Z,-7.40
2018-03-02T23:46:38.996Z,-7.40
2018-03-02T23:49:06.670Z,-7.40
2018-03-02T23:51:34.283Z,-7.40
2018-03-02T23:54:03.055Z,-7.40
2018-03-02T23:56:30.724Z,-7.50
2018-03-02T23:58:58.493Z,-7.50
